KFTY/FTY METAR and TAF weather

Enter ICAO airport designator
Station Type Date Time Source
KFTY METAR 2021/03/05 06:53 UTC NOAA

KFTY 050653Z 00000KT 10SM CLR 06/02 A3006 RMK AO2 SLP178 T00610017


Station Type Date Time Source
KFTY Decoded METAR 2021/03/05 06:53 UTC NOAA

ATLANTA FULTON COUNTY AIRPORT , GA, United States (KFTY) 33-47N 84-31W 263M
Mar 05, 2021 - 01:53 AM EST / 2021.03.05 0653 UTC
Wind: Calm:0
Visibility: 10 mile(s):0
Sky conditions: clear
Temperature: 43.0 F (6.1 C)
Dew Point: 35.1 F (1.7 C)
Relative Humidity: 73%
Pressure (altimeter): 30.06 in. Hg (1017 hPa)
ob: KFTY 050653Z 00000KT 10SM CLR 06/02 A3006 RMK AO2 SLP178 T00610017
cycle: 7

Station Type Date Time Source
KFTY TAF 2021/03/05 06:22 UTC NOAA

TAF KFTY 050520Z 0506/0606 34003KT P6SM SKC
FM051500 02004KT P6SM FEW250
FM052100 34007KT P6SM BKN200
FM052300 35005KT P6SM BKN100

Example: see airport list